createdAt,value
2018-05-11T00:00:30.341Z,16.66
2018-05-11T00:01:15.691Z,16.64
2018-05-11T00:03:15.757Z,16.68
2018-05-11T00:04:15.788Z,16.67
2018-05-11T00:05:15.524Z,16.66
2018-05-11T00:06:15.816Z,16.68
2018-05-11T00:07:15.589Z,16.66
2018-05-11T00:08:15.622Z,16.63
2018-05-11T00:09:15.985Z,16.53
2018-05-11T00:11:15.936Z,16.49
2018-05-11T00:12:30.624Z,16.52
2018-05-11T00:13:15.991Z,16.56
2018-05-11T00:14:16.028Z,16.43
2018-05-11T00:15:16.021Z,16.38
2018-05-11T00:16:30.706Z,16.35
2018-05-11T00:18:16.098Z,16.48
2018-05-11T00:19:16.143Z,16.41
2018-05-11T00:20:16.156Z,16.46
2018-05-11T00:21:16.197Z,16.43
2018-05-11T00:22:16.185Z,16.39
2018-05-11T00:23:16.213Z,16.49
2018-05-11T00:24:16.300Z,16.42
2018-05-11T00:25:16.017Z,16.46
2018-05-11T00:26:30.958Z,16.45
2018-05-11T00:27:16.314Z,16.53
2018-05-11T00:28:16.364Z,16.38
2018-05-11T00:29:16.354Z,16.42
2018-05-11T00:30:16.379Z,16.43
2018-05-11T00:31:31.073Z,16.41
2018-05-11T00:32:16.508Z,16.43
2018-05-11T00:33:16.477Z,16.34
2018-05-11T00:34:31.135Z,16.34
2018-05-11T00:35:16.524Z,16.39
2018-05-11T00:36:16.265Z,16.3
2018-05-11T00:37:16.570Z,16.42
2018-05-11T00:38:16.585Z,16.43
2018-05-11T00:39:16.607Z,16.41
2018-05-11T00:40:16.619Z,16.43
2018-05-11T00:41:16.676Z,16.39
2018-05-11T00:42:16.413Z,16.45
2018-05-11T00:43:16.718Z,16.42
2018-05-11T00:44:16.705Z,16.49
2018-05-11T00:45:16.497Z,16.35
2018-05-11T00:46:16.499Z,16.2
2018-05-11T00:47:16.537Z,16.31
2018-05-11T00:48:16.801Z,16.31
2018-05-11T00:49:16.853Z,16.24
2018-05-11T00:50:16.850Z,16.14
2018-05-11T00:51:16.634Z,16.11
2018-05-11T00:52:16.914Z,16.07
2018-05-11T00:53:16.953Z,16.07
2018-05-11T00:54:16.953Z,16.05
2018-05-11T00:55:16.995Z,16.25
2018-05-11T00:56:16.991Z,16.2
2018-05-11T00:57:17.052Z,16.14
2018-05-11T00:58:16.780Z,16.11
2018-05-11T00:59:17.094Z,16.09
2018-05-11T01:00:16.588Z,16.14
2018-05-11T01:01:17.109Z,16.01
2018-05-11T01:02:17.158Z,16.01
2018-05-11T01:03:31.560Z,15.97
2018-05-11T01:04:17.207Z,16
2018-05-11T01:06:16.980Z,15.87
2018-05-11T01:07:17.251Z,16
2018-05-11T01:08:17.303Z,15.94
2018-05-11T01:09:17.399Z,15.93
2018-05-11T01:10:17.348Z,15.87
2018-05-11T01:11:17.340Z,15.92
2018-05-11T01:12:17.401Z,15.97
2018-05-11T01:13:17.129Z,15.97
2018-05-11T01:14:17.430Z,15.94
2018-05-11T01:15:17.175Z,15.92
2018-05-11T01:16:17.519Z,15.89
2018-05-11T01:17:17.250Z,15.93
2018-05-11T01:18:17.513Z,15.87
2018-05-11T01:19:31.941Z,15.89
2018-05-11T01:20:17.298Z,15.89
2018-05-11T01:22:17.357Z,15.84
2018-05-11T01:23:17.394Z,15.67
2018-05-11T01:24:17.680Z,15.71
2018-05-11T01:25:32.329Z,15.74
2018-05-11T01:26:17.727Z,15.71
2018-05-11T01:27:32.377Z,15.68
2018-05-11T01:28:17.757Z,15.65
2018-05-11T01:29:17.769Z,15.72
2018-05-11T01:30:17.825Z,15.59
2018-05-11T01:31:17.557Z,15.59
2018-05-11T01:32:17.846Z,15.56
2018-05-11T01:33:17.888Z,15.51
2018-05-11T01:34:17.923Z,15.59
2018-05-11T01:36:17.958Z,15.57
2018-05-11T01:37:17.948Z,15.54
2018-05-11T01:38:17.988Z,15.72
2018-05-11T01:39:17.736Z,15.71
2018-05-11T01:40:32.703Z,15.69
2018-05-11T01:41:32.726Z,15.64
2018-05-11T01:42:18.067Z,15.69
2018-05-11T01:43:18.117Z,15.65
2018-05-11T01:44:18.124Z,15.74
2018-05-11T01:45:18.167Z,15.8
2018-05-11T01:46:32.817Z,15.75
2018-05-11T01:47:18.218Z,15.72
2018-05-11T01:48:18.241Z,15.74
2018-05-11T01:49:18.233Z,15.65
2018-05-11T01:50:18.091Z,15.69
2018-05-11T01:51:32.934Z,15.56
2018-05-11T01:52:18.067Z,15.72
2018-05-11T01:53:18.323Z,15.64
2018-05-11T01:55:18.411Z,15.57
2018-05-11T01:56:18.399Z,15.62
2018-05-11T01:57:18.428Z,15.6
2018-05-11T01:58:33.108Z,15.64
2018-05-11T01:59:18.482Z,15.68
2018-05-11T02:00:18.517Z,15.57
2018-05-11T02:01:33.168Z,15.57
2018-05-11T02:02:18.535Z,15.54
2018-05-11T02:03:18.591Z,15.53
2018-05-11T02:04:18.589Z,15.57
2018-05-11T02:05:18.632Z,15.54
2018-05-11T02:06:33.299Z,15.35
2018-05-11T02:07:18.667Z,15.43
2018-05-11T02:08:18.673Z,15.46
2018-05-11T02:10:18.750Z,15.36
2018-05-11T02:11:18.483Z,15.39
2018-05-11T02:12:18.796Z,15.46
2018-05-11T02:13:18.815Z,15.46
2018-05-11T02:14:33.471Z,15.47
2018-05-11T02:15:18.872Z,15.43
2018-05-11T02:16:18.858Z,15.49
2018-05-11T02:17:33.558Z,15.35
2018-05-11T02:18:18.910Z,15.44
2018-05-11T02:19:18.957Z,15.5
2018-05-11T02:20:18.978Z,15.54
2018-05-11T02:21:18.997Z,15.59
2018-05-11T02:22:19.001Z,15.56
2018-05-11T02:23:19.021Z,15.62
2018-05-11T02:24:18.817Z,15.44
2018-05-11T02:25:19.073Z,15.53
2018-05-11T02:26:18.841Z,15.54
2018-05-11T02:27:19.143Z,15.44
2018-05-11T02:28:19.144Z,15.44
2018-05-11T02:29:19.201Z,15.41
2018-05-11T02:30:19.202Z,15.41
2018-05-11T02:31:19.239Z,15.27
2018-05-11T02:33:19.253Z,15.49
2018-05-11T02:34:19.307Z,15.34
2018-05-11T02:35:19.333Z,15.29
2018-05-11T02:36:19.353Z,15.32
2018-05-11T02:37:19.358Z,15.29
2018-05-11T02:38:34.146Z,15.28
2018-05-11T02:39:19.391Z,15.28
2018-05-11T02:40:19.448Z,15.28
2018-05-11T02:41:19.441Z,15.32
2018-05-11T02:42:19.492Z,15.35
2018-05-11T02:43:19.255Z,15.36
2018-05-11T02:45:19.560Z,15.27
2018-05-11T02:46:19.551Z,15.46
2018-05-11T02:47:19.755Z,15.35
2018-05-11T02:48:19.615Z,15.41
2018-05-11T02:49:19.663Z,15.43
2018-05-11T02:50:19.402Z,15.38
2018-05-11T02:51:19.437Z,15.44
2018-05-11T02:52:19.689Z,15.32
2018-05-11T02:53:19.481Z,15.28
2018-05-11T02:54:34.403Z,15.46
2018-05-11T02:55:19.640Z,15.5
2018-05-11T02:56:19.534Z,15.38
2018-05-11T02:57:19.561Z,15.29
2018-05-11T02:58:19.840Z,15.31
2018-05-11T02:59:19.361Z,15.27
2018-05-11T03:00:34.658Z,15.25
2018-05-11T03:01:19.391Z,15.35
2018-05-11T03:02:19.935Z,15.31
2018-05-11T03:03:19.951Z,15.29
2018-05-11T03:04:20.018Z,15.23
2018-05-11T03:05:20.007Z,15.27
2018-05-11T03:06:20.149Z,15.2
2018-05-11T03:07:19.785Z,15.28
2018-05-11T03:09:19.821Z,15.21
2018-05-11T03:10:34.826Z,15.31
2018-05-11T03:11:20.162Z,15.39
2018-05-11T03:12:19.899Z,15.25
2018-05-11T03:13:20.211Z,15.21
2018-05-11T03:14:20.218Z,15.17
2018-05-11T03:16:20.249Z,15.25
2018-05-11T03:17:34.929Z,15.27
2018-05-11T03:18:20.479Z,15.27
2018-05-11T03:19:20.316Z,15.03
2018-05-11T03:20:20.364Z,15.07
2018-05-11T03:21:20.389Z,15.21
2018-05-11T03:22:20.380Z,15.11
2018-05-11T03:23:20.434Z,15.11
2018-05-11T03:24:20.455Z,15.19
2018-05-11T03:26:35.151Z,15.09
2018-05-11T03:27:20.512Z,15.13
2018-05-11T03:29:20.556Z,14.91
2018-05-11T03:31:20.364Z,14.91
2018-05-11T03:32:20.613Z,14.75
2018-05-11T03:33:20.660Z,14.77
2018-05-11T03:34:35.317Z,14.83
2018-05-11T03:35:20.701Z,14.73
2018-05-11T03:36:20.703Z,14.75
2018-05-11T03:37:20.231Z,14.89
2018-05-11T03:38:20.785Z,14.89
2018-05-11T03:39:20.789Z,14.91
2018-05-11T03:40:20.805Z,14.92
2018-05-11T03:41:35.476Z,14.78
2018-05-11T03:42:20.872Z,14.83
2018-05-11T03:43:20.873Z,14.75
2018-05-11T03:44:20.927Z,14.86
2018-05-11T03:45:21.045Z,14.8
2018-05-11T03:46:20.958Z,14.77
2018-05-11T03:47:20.964Z,14.75
2018-05-11T03:48:21.007Z,14.72
2018-05-11T03:49:35.662Z,14.73
2018-05-11T03:50:35.704Z,14.75
2018-05-11T03:51:21.053Z,14.68
2018-05-11T03:52:21.086Z,14.6
2018-05-11T03:53:21.091Z,14.65
2018-05-11T03:54:21.151Z,14.61
2018-05-11T03:55:20.906Z,14.64
2018-05-11T03:56:35.834Z,14.5
2018-05-11T03:57:21.196Z,14.61
2018-05-11T03:58:21.213Z,14.61
2018-05-11T03:59:21.259Z,14.73
2018-05-11T04:00:21.257Z,14.73
2018-05-11T04:01:21.307Z,14.77
2018-05-11T04:02:21.316Z,14.83
2018-05-11T04:04:21.349Z,14.8
2018-05-11T04:05:21.360Z,14.72
2018-05-11T04:06:21.157Z,14.84
2018-05-11T04:07:21.419Z,14.8
2018-05-11T04:08:21.464Z,14.83
2018-05-11T04:10:21.497Z,14.77
2018-05-11T04:11:21.508Z,14.72
2018-05-11T04:12:21.522Z,14.8
2018-05-11T04:13:35.964Z,14.78
2018-05-11T04:14:21.586Z,14.73
2018-05-11T04:15:21.348Z,14.8
2018-05-11T04:16:21.384Z,14.73
2018-05-11T04:17:21.381Z,14.73
2018-05-11T04:18:21.432Z,14.57
2018-05-11T04:19:21.717Z,14.54
2018-05-11T04:20:21.719Z,14.6
2018-05-11T04:21:21.742Z,14.69
2018-05-11T04:22:21.493Z,14.68
2018-05-11T04:23:36.452Z,14.75
2018-05-11T04:24:21.801Z,14.78
2018-05-11T04:25:21.591Z,14.77
2018-05-11T04:26:21.858Z,14.86
2018-05-11T04:27:21.895Z,14.77
2018-05-11T04:28:21.892Z,14.81
2018-05-11T04:29:36.593Z,14.86
2018-05-11T04:30:22.158Z,14.83
2018-05-11T04:34:21.787Z,14.91
2018-05-11T04:35:21.809Z,14.92
2018-05-11T04:36:21.837Z,14.92
2018-05-11T04:37:21.931Z,14.99
2018-05-11T04:38:21.878Z,14.84
2018-05-11T04:39:22.210Z,14.69
2018-05-11T04:40:21.915Z,14.72
2018-05-11T04:41:22.189Z,14.78
2018-05-11T04:42:22.286Z,14.89
2018-05-11T04:43:22.247Z,14.78
2018-05-11T04:44:22.265Z,14.7
2018-05-11T04:47:36.729Z,14.86
2018-05-11T04:48:37.011Z,14.86
2018-05-11T04:49:22.384Z,14.83
2018-05-11T04:51:22.443Z,14.75
2018-05-11T04:52:22.436Z,14.77
2018-05-11T04:53:22.240Z,14.8
2018-05-11T04:54:22.236Z,14.92
2018-05-11T04:55:22.270Z,14.89
2018-05-11T04:56:22.521Z,14.92
2018-05-11T04:57:22.553Z,14.99
2018-05-11T04:58:22.585Z,14.77
2018-05-11T04:59:22.624Z,14.81
2018-05-11T05:00:22.645Z,14.92
2018-05-11T05:01:37.296Z,14.94
2018-05-11T05:02:22.685Z,15.02
2018-05-11T05:03:22.690Z,14.96
2018-05-11T05:04:22.737Z,14.95
2018-05-11T05:05:22.734Z,15.01
2018-05-11T05:06:22.786Z,15.06
2018-05-11T05:07:22.800Z,15.02
2018-05-11T05:08:22.813Z,14.98
2018-05-11T05:09:22.561Z,14.99
2018-05-11T05:10:22.873Z,15.01
2018-05-11T05:12:22.986Z,15.1
2018-05-11T05:13:22.912Z,15.07
2018-05-11T05:14:22.966Z,15.09
2018-05-11T05:15:22.961Z,15.1
2018-05-11T05:16:37.656Z,15.09
2018-05-11T05:17:23.033Z,15.11
2018-05-11T05:18:23.087Z,15.13
2018-05-11T05:19:22.913Z,15.02
2018-05-11T05:20:23.081Z,14.95
2018-05-11T05:22:37.778Z,14.92
2018-05-11T05:23:23.172Z,14.95
2018-05-11T05:24:23.188Z,14.95
2018-05-11T05:25:22.938Z,14.92
2018-05-11T05:26:23.221Z,14.88
2018-05-11T05:27:23.230Z,14.92
2018-05-11T05:28:23.285Z,15.03
2018-05-11T05:29:23.291Z,15.09
2018-05-11T05:30:23.328Z,15.11
2018-05-11T05:31:23.334Z,15.17
2018-05-11T05:32:23.105Z,15.13
2018-05-11T05:33:23.368Z,15.09
2018-05-11T05:34:23.156Z,15.1
2018-05-11T05:35:23.155Z,15.27
2018-05-11T05:36:23.465Z,15.25
2018-05-11T05:37:38.120Z,15.14
2018-05-11T05:39:23.251Z,15.11
2018-05-11T05:40:23.555Z,15.13
2018-05-11T05:41:23.551Z,15.23
2018-05-11T05:42:23.601Z,15.29
2018-05-11T05:43:23.600Z,15.35
2018-05-11T05:44:38.017Z,15.39
2018-05-11T05:45:23.674Z,15.34
2018-05-11T05:46:23.679Z,15.36
2018-05-11T05:47:23.718Z,15.46
2018-05-11T05:48:38.367Z,15.38
2018-05-11T05:49:23.764Z,15.27
2018-05-11T05:50:23.764Z,15.41
2018-05-11T05:51:23.780Z,15.46
2018-05-11T05:52:23.550Z,15.38
2018-05-11T05:53:23.593Z,15.27
2018-05-11T05:54:23.878Z,15.28
2018-05-11T05:55:23.867Z,15.27
2018-05-11T05:56:23.925Z,15.29
2018-05-11T05:57:23.912Z,15.47
2018-05-11T05:58:23.766Z,15.5
2018-05-11T05:59:23.969Z,15.44
2018-05-11T06:00:24.016Z,15.44
2018-05-11T06:01:24.020Z,15.46
2018-05-11T06:02:24.148Z,15.36
2018-05-11T06:03:24.062Z,15.36
2018-05-11T06:04:38.882Z,15.5
2018-05-11T06:05:24.103Z,15.49
2018-05-11T06:06:24.160Z,15.57
2018-05-11T06:07:24.142Z,15.57
2018-05-11T06:08:24.372Z,15.53
2018-05-11T06:09:24.202Z,15.54
2018-05-11T06:10:24.242Z,15.57
2018-05-11T06:11:24.318Z,15.65
2018-05-11T06:12:24.004Z,15.71
2018-05-11T06:13:24.296Z,15.75
2018-05-11T06:14:24.304Z,15.82
2018-05-11T06:15:24.358Z,15.89
2018-05-11T06:16:24.354Z,15.82
2018-05-11T06:17:24.384Z,15.71
2018-05-11T06:18:24.166Z,15.82
2018-05-11T06:19:24.211Z,15.86
2018-05-11T06:20:39.117Z,15.87
2018-05-11T06:21:24.500Z,15.83
2018-05-11T06:22:24.532Z,15.9
2018-05-11T06:23:24.522Z,15.86
2018-05-11T06:24:24.531Z,15.71
2018-05-11T06:25:24.323Z,15.69
2018-05-11T06:26:24.579Z,15.67
2018-05-11T06:27:24.632Z,15.59
2018-05-11T06:28:24.651Z,15.59
2018-05-11T06:29:24.665Z,15.69
2018-05-11T06:30:24.670Z,15.69
2018-05-11T06:31:24.727Z,15.59
2018-05-11T06:32:24.459Z,15.6
2018-05-11T06:33:24.801Z,15.46
2018-05-11T06:34:24.843Z,15.43
2018-05-11T06:35:24.823Z,15.34
2018-05-11T06:36:39.473Z,15.43
2018-05-11T06:37:24.863Z,15.39
2018-05-11T06:38:24.866Z,15.39
2018-05-11T06:39:24.906Z,15.2
2018-05-11T06:40:24.667Z,15.11
2018-05-11T06:41:24.925Z,15.06
2018-05-11T06:42:24.975Z,15.09
2018-05-11T06:43:24.974Z,15.21
2018-05-11T06:44:24.495Z,15.19
2018-05-11T06:45:25.012Z,15.32
2018-05-11T06:46:25.068Z,15.27
2018-05-11T06:47:24.801Z,15.31
2018-05-11T06:48:25.099Z,15.31
2018-05-11T06:50:25.156Z,15.36
2018-05-11T06:51:39.829Z,15.49
2018-05-11T06:52:25.178Z,15.62
2018-05-11T06:53:24.700Z,15.65
2018-05-11T06:55:39.905Z,15.64
2018-05-11T06:56:25.030Z,15.68
2018-05-11T06:57:25.042Z,15.62
2018-05-11T06:58:39.970Z,15.54
2018-05-11T06:59:25.355Z,15.6
2018-05-11T07:00:25.366Z,15.72
2018-05-11T07:01:40.160Z,15.78
2018-05-11T07:02:25.472Z,15.89
2018-05-11T07:03:25.443Z,15.9
2018-05-11T07:04:25.506Z,15.8
2018-05-11T07:05:25.470Z,15.69
2018-05-11T07:06:25.533Z,15.56
2018-05-11T07:07:25.724Z,15.71
2018-05-11T07:08:25.575Z,15.74
2018-05-11T07:09:25.607Z,15.72
2018-05-11T07:10:25.616Z,15.83
2018-05-11T07:11:25.608Z,15.89
2018-05-11T07:12:25.635Z,15.84
2018-05-11T07:13:25.681Z,15.69
2018-05-11T07:14:25.718Z,15.72
2018-05-11T07:15:25.780Z,15.78
2018-05-11T07:16:25.723Z,15.71
2018-05-11T07:17:40.432Z,15.74
2018-05-11T07:18:25.773Z,15.67
2018-05-11T07:19:25.592Z,15.65
2018-05-11T07:20:25.844Z,15.74
2018-05-11T07:21:25.599Z,15.83
2018-05-11T07:23:40.544Z,15.83
2018-05-11T07:24:25.673Z,15.82
2018-05-11T07:25:25.936Z,15.72
2018-05-11T07:26:25.720Z,15.72
2018-05-11T07:27:26.112Z,15.96
2018-05-11T07:28:26.000Z,15.97
2018-05-11T07:29:40.684Z,15.9
2018-05-11T07:30:26.081Z,15.9
2018-05-11T07:31:25.808Z,15.8
2018-05-11T07:32:40.770Z,15.78
2018-05-11T07:33:25.883Z,15.9
2018-05-11T07:34:25.891Z,15.94
2018-05-11T07:35:26.162Z,15.83
2018-05-11T07:36:26.196Z,15.96
2018-05-11T07:37:26.234Z,16.07
2018-05-11T07:38:25.988Z,16.09
2018-05-11T07:39:40.936Z,16.2
2018-05-11T07:41:26.067Z,16.25
2018-05-11T07:42:26.390Z,16.43
2018-05-11T07:43:26.720Z,16.38
2018-05-11T07:44:26.118Z,16.43
2018-05-11T07:45:26.158Z,16.38
2018-05-11T07:46:26.183Z,16.41
2018-05-11T07:47:26.444Z,16.43
2018-05-11T07:48:26.471Z,16.48
2018-05-11T07:49:26.485Z,16.46
2018-05-11T07:50:26.539Z,16.43
2018-05-11T07:51:26.279Z,16.49
2018-05-11T07:52:26.667Z,16.48
2018-05-11T07:53:26.609Z,16.49
2018-05-11T07:54:26.606Z,16.46
2018-05-11T07:55:41.300Z,16.46
2018-05-11T07:56:26.677Z,16.28
2018-05-11T07:57:26.672Z,16.11
2018-05-11T07:58:26.708Z,16.17
2018-05-11T07:59:26.720Z,16.3
2018-05-11T08:00:26.777Z,16.11
2018-05-11T08:01:26.769Z,16.24
2018-05-11T08:02:26.818Z,16.35
2018-05-11T08:04:26.854Z,16.31
2018-05-11T08:05:26.861Z,16.42
2018-05-11T08:06:26.649Z,16.5
2018-05-11T08:07:26.650Z,16.39
2018-05-11T08:08:26.681Z,16.38
2018-05-11T08:09:26.692Z,16.49
2018-05-11T08:10:27.008Z,16.52
2018-05-11T08:12:27.049Z,16.85
2018-05-11T08:13:27.074Z,16.83
2018-05-11T08:14:27.669Z,17
2018-05-11T08:15:27.089Z,16.78
2018-05-11T08:16:27.226Z,16.66
2018-05-11T08:17:27.266Z,16.82
2018-05-11T08:18:41.822Z,17.06
2018-05-11T08:19:26.949Z,17.12
2018-05-11T08:20:41.615Z,17.11
2018-05-11T08:21:27.427Z,17.01
2018-05-11T08:22:27.283Z,16.91
2018-05-11T08:23:27.310Z,17.07
2018-05-11T08:24:27.048Z,17.18
2018-05-11T08:25:27.339Z,17.07
2018-05-11T08:26:41.866Z,17.03
2018-05-11T08:27:27.420Z,17.01
2018-05-11T08:29:27.455Z,16.64
2018-05-11T08:30:27.469Z,16.82
2018-05-11T08:31:27.487Z,16.83
2018-05-11T08:32:27.493Z,16.91
2018-05-11T08:33:27.579Z,16.91
2018-05-11T08:34:27.584Z,16.93
2018-05-11T08:35:27.584Z,17.01
2018-05-11T08:36:27.620Z,16.91
2018-05-11T08:37:27.611Z,17.01
2018-05-11T08:38:27.760Z,17.14
2018-05-11T08:39:27.654Z,17.25
2018-05-11T08:40:42.372Z,17.52
2018-05-11T08:41:27.708Z,17.54
2018-05-11T08:42:27.757Z,17.26
2018-05-11T08:43:27.783Z,17.01
2018-05-11T08:44:27.535Z,17.11
2018-05-11T08:45:27.808Z,17.26
2018-05-11T08:46:27.983Z,17.14
2018-05-11T08:47:27.868Z,17.19
2018-05-11T08:48:27.884Z,17.4
2018-05-11T08:49:27.645Z,17.62
2018-05-11T08:50:27.948Z,17.78
2018-05-11T08:51:27.941Z,17.82
2018-05-11T08:52:27.999Z,17.89
2018-05-11T08:53:42.662Z,17.71
2018-05-11T08:54:28.029Z,17.43
2018-05-11T08:55:28.035Z,17.22
2018-05-11T08:56:28.066Z,17.16
2018-05-11T08:57:27.584Z,17.36
2018-05-11T08:58:42.775Z,17.44
2018-05-11T08:59:27.899Z,17.48
2018-05-11T09:00:28.172Z,17.49
2018-05-11T09:01:28.213Z,17.56
2018-05-11T09:02:28.206Z,17.75
2018-05-11T09:03:27.974Z,17.86
2018-05-11T09:04:42.928Z,17.97
2018-05-11T09:05:28.026Z,18.08
2018-05-11T09:06:28.329Z,18.11
2018-05-11T09:07:28.323Z,18.26
2018-05-11T09:08:28.477Z,17.99
2018-05-11T09:09:28.381Z,17.93
2018-05-11T09:11:28.466Z,17.72
2018-05-11T09:12:28.479Z,17.68
2018-05-11T09:13:28.463Z,17.9
2018-05-11T09:14:43.168Z,18.1
2018-05-11T09:15:28.519Z,18.3
2018-05-11T09:16:28.315Z,18.41
2018-05-11T09:17:28.572Z,18.36
2018-05-11T09:18:28.601Z,18.44
2018-05-11T09:19:28.353Z,18.14
2018-05-11T09:20:28.630Z,18.25
2018-05-11T09:21:28.786Z,18.25
2018-05-11T09:22:28.681Z,18.29
2018-05-11T09:23:28.738Z,18.41
2018-05-11T09:24:28.467Z,18.37
2018-05-11T09:25:28.796Z,18.29
2018-05-11T09:26:28.524Z,18.3
2018-05-11T09:27:28.552Z,18.35
2018-05-11T09:28:28.565Z,18.57
2018-05-11T09:29:28.878Z,18.72
2018-05-11T09:30:43.549Z,18.48
2018-05-11T09:31:28.908Z,18.58
2018-05-11T09:33:28.943Z,18.7
2018-05-11T09:34:28.755Z,18.91
2018-05-11T09:35:28.998Z,19.11
2018-05-11T09:37:29.075Z,19.14
2018-05-11T09:38:43.730Z,19.36
2018-05-11T09:39:29.258Z,19.58
2018-05-11T09:40:43.791Z,19.33
2018-05-11T09:41:29.136Z,19.54
2018-05-11T09:42:43.838Z,19.78
2018-05-11T09:43:29.187Z,19.8
2018-05-11T09:44:28.971Z,19.71
2018-05-11T09:45:28.989Z,19.59
2018-05-11T09:46:43.936Z,19.74
2018-05-11T09:47:29.321Z,19.68
2018-05-11T09:48:29.308Z,19.69
2018-05-11T09:49:29.637Z,19.56
2018-05-11T09:50:29.103Z,19.31
2018-05-11T09:51:29.146Z,18.87
2018-05-11T09:52:29.407Z,19.06
2018-05-11T09:54:29.576Z,19.23
2018-05-11T09:56:44.184Z,19.28
2018-05-11T09:57:29.527Z,19.4
2018-05-11T09:58:29.317Z,19.19
2018-05-11T09:59:29.589Z,18.87
2018-05-11T10:00:29.639Z,18.87
2018-05-11T10:01:44.376Z,19.04
2018-05-11T10:02:29.404Z,19.36
2018-05-11T10:03:29.690Z,19.43
2018-05-11T10:04:29.460Z,19.59
2018-05-11T10:05:29.499Z,19.73
2018-05-11T10:06:29.755Z,20.05
2018-05-11T10:07:29.806Z,20.01
2018-05-11T10:08:44.466Z,20.14
2018-05-11T10:09:29.848Z,19.92
2018-05-11T10:10:29.888Z,19.73
2018-05-11T10:11:29.904Z,19.78
2018-05-11T10:13:29.951Z,19.55
2018-05-11T10:14:29.439Z,19.63
2018-05-11T10:15:29.991Z,19.46
2018-05-11T10:16:30.003Z,19.76
2018-05-11T10:17:30.055Z,19.78
2018-05-11T10:19:29.823Z,20.16
2018-05-11T10:21:30.117Z,19.71
2018-05-11T10:22:30.162Z,19.78
2018-05-11T10:23:30.184Z,20.02
2018-05-11T10:24:30.230Z,19.76
2018-05-11T10:25:30.258Z,19.59
2018-05-11T10:26:29.988Z,19.76
2018-05-11T10:27:30.046Z,19.96
2018-05-11T10:29:30.322Z,19.73
2018-05-11T10:30:30.360Z,19.88
2018-05-11T10:31:30.140Z,19.95
2018-05-11T10:32:30.426Z,20.06
2018-05-11T10:33:45.080Z,20.14
2018-05-11T10:34:30.308Z,20.21
2018-05-11T10:35:30.483Z,20.1
2018-05-11T10:36:30.512Z,20.17
2018-05-11T10:37:30.554Z,20.13
2018-05-11T10:38:30.560Z,20.14
2018-05-11T10:39:30.050Z,20.18
2018-05-11T10:40:30.625Z,20.05
2018-05-11T10:41:30.361Z,20.17
2018-05-11T10:42:30.674Z,20.23
2018-05-11T10:43:30.679Z,20.2
2018-05-11T10:44:30.724Z,20.13
2018-05-11T10:45:30.719Z,20.21
2018-05-11T10:46:30.487Z,20.21
2018-05-11T10:47:30.779Z,20.13
2018-05-11T10:49:45.496Z,19.91
2018-05-11T10:51:30.636Z,19.76
2018-05-11T10:52:30.904Z,19.46
2018-05-11T10:53:30.930Z,19.11
2018-05-11T10:54:30.955Z,18.85
2018-05-11T10:55:30.997Z,18.92
2018-05-11T10:56:31.020Z,19.08
2018-05-11T10:57:45.674Z,19.23
2018-05-11T10:58:30.808Z,19.19
2018-05-11T10:59:45.465Z,19
2018-05-11T11:00:30.832Z,19.02
2018-05-11T11:01:30.875Z,19.16
2018-05-11T11:02:31.294Z,19.1
2018-05-11T11:03:31.166Z,19.21
2018-05-11T11:04:31.219Z,19.18
2018-05-11T11:06:31.265Z,19.55
2018-05-11T11:08:31.288Z,19.77
2018-05-11T11:09:46.069Z,19.74
2018-05-11T11:10:31.332Z,19.77
2018-05-11T11:11:31.389Z,19.73
2018-05-11T11:12:46.044Z,19.86
2018-05-11T11:13:31.352Z,19.87
2018-05-11T11:14:31.196Z,20.03
2018-05-11T11:15:31.480Z,20.08
2018-05-11T11:16:31.221Z,20.01
2018-05-11T11:17:31.506Z,20.24
2018-05-11T11:18:31.293Z,20.17
2018-05-11T11:19:46.229Z,20.23
2018-05-11T11:20:31.610Z,20.32
2018-05-11T11:21:46.279Z,20.42
2018-05-11T11:22:31.645Z,20.42
2018-05-11T11:23:31.653Z,20.17
2018-05-11T11:25:31.732Z,20.1
2018-05-11T11:26:31.742Z,20.06
2018-05-11T11:27:31.521Z,20.16
2018-05-11T11:28:31.786Z,20.2
2018-05-11T11:29:31.562Z,20.28
2018-05-11T11:30:31.827Z,20.35
2018-05-11T11:31:31.934Z,20.28
2018-05-11T11:32:31.882Z,20.14
2018-05-11T11:33:31.917Z,20.05
2018-05-11T11:34:31.877Z,20.02
2018-05-11T11:35:31.981Z,20.02
2018-05-11T11:37:32.033Z,19.91
2018-05-11T11:38:31.792Z,19.95
2018-05-11T11:39:32.071Z,19.98
2018-05-11T11:40:32.150Z,20.1
2018-05-11T11:41:31.838Z,20.1
2018-05-11T11:42:31.890Z,20.06
2018-05-11T11:43:31.889Z,20.06
2018-05-11T11:44:32.207Z,20.11
2018-05-11T11:45:46.862Z,20.2
2018-05-11T11:48:32.303Z,19.98
2018-05-11T11:49:32.311Z,19.99
2018-05-11T11:50:32.355Z,20.01
2018-05-11T11:51:32.094Z,19.98
2018-05-11T11:52:32.136Z,19.92
2018-05-11T11:53:32.408Z,20.01
2018-05-11T11:54:32.452Z,19.87
2018-05-11T11:55:32.478Z,19.83
2018-05-11T11:56:32.671Z,19.83
2018-05-11T11:57:32.494Z,19.77
2018-05-11T11:58:32.553Z,19.62
2018-05-11T12:00:32.595Z,19.54
2018-05-11T12:01:32.738Z,19.76
2018-05-11T12:02:32.372Z,19.77
2018-05-11T12:03:32.128Z,19.94
2018-05-11T12:04:32.703Z,19.76
2018-05-11T12:06:32.725Z,19.71
2018-05-11T12:07:32.754Z,19.77
2018-05-11T12:08:47.426Z,19.74
2018-05-11T12:09:32.827Z,19.73
2018-05-11T12:10:32.816Z,19.71
2018-05-11T12:11:32.870Z,19.81
2018-05-11T12:12:32.877Z,19.87
2018-05-11T12:13:32.658Z,19.96
2018-05-11T12:14:33.007Z,20.01
2018-05-11T12:15:32.934Z,20.02
2018-05-11T12:16:32.992Z,19.98
2018-05-11T12:17:32.994Z,19.95
2018-05-11T12:18:32.787Z,19.99
2018-05-11T12:19:32.784Z,19.78
2018-05-11T12:20:33.196Z,19.84
2018-05-11T12:21:32.828Z,19.98
2018-05-11T12:22:33.120Z,19.98
2018-05-11T12:24:47.572Z,19.62
2018-05-11T12:25:33.198Z,19.56
2018-05-11T12:26:33.360Z,19.73
2018-05-11T12:28:33.271Z,20.01
2018-05-11T12:29:33.315Z,20.1
2018-05-11T12:30:33.307Z,20.13
2018-05-11T12:31:33.367Z,20.11
2018-05-11T12:32:48.018Z,20.11
2018-05-11T12:33:48.041Z,19.96
2018-05-11T12:34:33.437Z,19.96
2018-05-11T12:35:33.175Z,20.14
2018-05-11T12:36:33.487Z,20.14
2018-05-11T12:37:33.480Z,20.08
2018-05-11T12:38:33.537Z,19.98
2018-05-11T12:39:33.534Z,19.91
2018-05-11T12:40:48.219Z,19.87
2018-05-11T12:41:33.601Z,19.76
2018-05-11T12:42:33.370Z,19.8
2018-05-11T12:43:33.659Z,20.02
2018-05-11T12:44:33.651Z,20.03
2018-05-11T12:45:33.453Z,20.03
2018-05-11T12:46:33.465Z,20.11
2018-05-11T12:47:33.748Z,19.8
2018-05-11T12:48:48.411Z,19.88
2018-05-11T12:49:33.280Z,19.99
2018-05-11T12:50:33.569Z,19.91
2018-05-11T12:51:33.841Z,19.86
2018-05-11T12:52:33.863Z,19.88
2018-05-11T12:53:33.911Z,19.94
2018-05-11T12:54:33.905Z,19.95
2018-05-11T12:55:33.686Z,19.76
2018-05-11T12:56:48.613Z,19.58
2018-05-11T12:57:33.984Z,19.43
2018-05-11T12:58:34.012Z,19.59
2018-05-11T12:59:34.053Z,19.59
2018-05-11T13:00:34.078Z,19.74
2018-05-11T13:01:34.076Z,19.73
2018-05-11T13:02:34.117Z,19.65
2018-05-11T13:03:34.131Z,19.39
2018-05-11T13:04:33.650Z,19.37
2018-05-11T13:05:34.171Z,19.33
2018-05-11T13:06:33.962Z,19.31
2018-05-11T13:07:48.893Z,19.26
2018-05-11T13:08:34.264Z,19.31
2018-05-11T13:10:34.301Z,19.36
2018-05-11T13:11:49.000Z,19.37
2018-05-11T13:12:34.346Z,19.31
2018-05-11T13:13:34.135Z,19.46
2018-05-11T13:14:34.161Z,19.36
2018-05-11T13:15:34.448Z,19.47
2018-05-11T13:16:34.451Z,19.54
2018-05-11T13:17:34.472Z,19.5
2018-05-11T13:18:33.992Z,19.56
2018-05-11T13:19:34.535Z,19.59
2018-05-11T13:20:34.955Z,19.55
2018-05-11T13:21:49.243Z,19.46
2018-05-11T13:22:34.332Z,19.33
2018-05-11T13:23:34.647Z,19.19
2018-05-11T13:24:34.673Z,18.95
2018-05-11T13:25:34.671Z,19.02
2018-05-11T13:26:34.698Z,19.07
2018-05-11T13:27:34.714Z,19.16
2018-05-11T13:29:34.245Z,18.91
2018-05-11T13:30:34.659Z,18.81
2018-05-11T13:31:34.927Z,18.82
2018-05-11T13:32:34.588Z,18.88
2018-05-11T13:33:34.864Z,18.76
2018-05-11T13:34:49.544Z,18.76
2018-05-11T13:35:34.675Z,18.76
2018-05-11T13:36:35.264Z,18.82
2018-05-11T13:37:34.992Z,18.66
2018-05-11T13:38:34.997Z,18.65
2018-05-11T13:40:35.028Z,18.51
2018-05-11T13:41:35.058Z,18.57
2018-05-11T13:42:34.580Z,18.58
2018-05-11T13:43:49.765Z,18.65
2018-05-11T13:44:35.164Z,18.57
2018-05-11T13:45:35.152Z,18.65
2018-05-11T13:46:35.209Z,18.69
2018-05-11T13:47:35.249Z,18.82
2018-05-11T13:48:35.499Z,18.58
2018-05-11T13:49:35.280Z,18.44
2018-05-11T13:50:49.933Z,18.5
2018-05-11T13:51:35.297Z,18.36